sensor_id;sensor_type;location;lat;lon;timestamp;P1;durP1;ratioP1;P2;durP2;ratioP2
22837;SDS011;11585;51.450;-0.240;2022-11-24T00:00:32;17.23;;;2.33;;
22837;SDS011;11585;51.450;-0.240;2022-11-24T00:02:57;17.25;;;2.92;;
22837;SDS011;11585;51.450;-0.240;2022-11-24T00:05:24;14.73;;;2.30;;
22837;SDS011;11585;51.450;-0.240;2022-11-24T00:07:50;17.70;;;2.58;;
22837;SDS011;11585;51.450;-0.240;2022-11-24T00:10:17;20.65;;;3.30;;
22837;SDS011;11585;51.450;-0.240;2022-11-24T00:12:42;25.52;;;3.58;;
22837;SDS011;11585;51.450;-0.240;2022-11-24T00:17:55;18.80;;;3.42;;
22837;SDS011;11585;51.450;-0.240;2022-11-24T00:20:21;21.25;;;2.80;;
22837;SDS011;11585;51.450;-0.240;2022-11-24T00:22:46;17.48;;;2.38;;
22837;SDS011;11585;51.450;-0.240;2022-11-24T00:25:13;24.10;;;2.75;;
22837;SDS011;11585;51.450;-0.240;2022-11-24T00:27:39;16.52;;;2.80;;
22837;SDS011;11585;51.450;-0.240;2022-11-24T00:30:04;23.23;;;2.97;;
22837;SDS011;11585;51.450;-0.240;2022-11-24T00:32:30;16.90;;;2.35;;
22837;SDS011;11585;51.450;-0.240;2022-11-24T00:38:00;17.40;;;2.30;;
22837;SDS011;11585;51.450;-0.240;2022-11-24T00:40:26;14.50;;;2.30;;
22837;SDS011;11585;51.450;-0.240;2022-11-24T00:42:51;13.00;;;1.90;;
22837;SDS011;11585;51.450;-0.240;2022-11-24T00:45:17;13.40;;;1.70;;
22837;SDS011;11585;51.450;-0.240;2022-11-24T00:47:43;12.23;;;1.58;;
22837;SDS011;11585;51.450;-0.240;2022-11-24T00:50:08;13.35;;;1.27;;
22837;SDS011;11585;51.450;-0.240;2022-11-24T00:52:34;11.00;;;2.03;;
22837;SDS011;11585;51.450;-0.240;2022-11-24T00:57:30;11.75;;;1.42;;
22837;SDS011;11585;51.450;-0.240;2022-11-24T00:59:58;11.48;;;1.35;;
22837;SDS011;11585;51.450;-0.240;2022-11-24T01:02:23;6.65;;;0.90;;
22837;SDS011;11585;51.450;-0.240;2022-11-24T01:07:54;2.25;;;0.77;;
22837;SDS011;11585;51.450;-0.240;2022-11-24T01:10:20;4.53;;;0.70;;
22837;SDS011;11585;51.450;-0.240;2022-11-24T01:12:46;3.40;;;0.77;;
22837;SDS011;11585;51.450;-0.240;2022-11-24T01:15:12;9.02;;;0.90;;
22837;SDS011;11585;51.450;-0.240;2022-11-24T01:17:37;3.20;;;0.70;;
22837;SDS011;11585;51.450;-0.240;2022-11-24T01:20:03;1.88;;;0.82;;
22837;SDS011;11585;51.450;-0.240;2022-11-24T01:22:31;2.78;;;0.90;;
22837;SDS011;11585;51.450;-0.240;2022-11-24T01:25:00;6.93;;;1.00;;
22837;SDS011;11585;51.450;-0.240;2022-11-24T01:27:25;3.72;;;0.85;;
22837;SDS011;11585;51.450;-0.240;2022-11-24T01:29:51;3.75;;;0.80;;
22837;SDS011;11585;51.450;-0.240;2022-11-24T01:32:16;4.75;;;1.20;;
22837;SDS011;11585;51.450;-0.240;2022-11-24T01:34:42;4.20;;;0.90;;
22837;SDS011;11585;51.450;-0.240;2022-11-24T01:37:08;5.82;;;1.15;;
22837;SDS011;11585;51.450;-0.240;2022-11-24T01:39:33;4.43;;;0.80;;
22837;SDS011;11585;51.450;-0.240;2022-11-24T01:42:00;7.32;;;1.20;;
22837;SDS011;11585;51.450;-0.240;2022-11-24T01:47:33;6.43;;;1.30;;
22837;SDS011;11585;51.450;-0.240;2022-11-24T01:50:01;5.72;;;1.08;;
22837;SDS011;11585;51.450;-0.240;2022-11-24T01:52:32;8.07;;;1.10;;
22837;SDS011;11585;51.450;-0.240;2022-11-24T01:58:10;9.02;;;1.45;;
22837;SDS011;11585;51.450;-0.240;2022-11-24T02:00:43;5.43;;;1.08;;
22837;SDS011;11585;51.450;-0.240;2022-11-24T02:06:01;4.65;;;1.00;;
22837;SDS011;11585;51.450;-0.240;2022-11-24T02:08:45;3.35;;;1.10;;
22837;SDS011;11585;51.450;-0.240;2022-11-24T02:11:20;12.23;;;1.42;;
22837;SDS011;11585;51.450;-0.240;2022-11-24T02:17:09;8.13;;;1.23;;
22837;SDS011;11585;51.450;-0.240;2022-11-24T02:27:56;8.45;;;1.52;;
22837;SDS011;11585;51.450;-0.240;2022-11-24T02:30:23;10.48;;;1.40;;
22837;SDS011;11585;51.450;-0.240;2022-11-24T02:32:49;6.03;;;1.48;;
22837;SDS011;11585;51.450;-0.240;2022-11-24T02:35:16;7.70;;;1.35;;
22837;SDS011;11585;51.450;-0.240;2022-11-24T02:37:42;9.82;;;1.35;;
22837;SDS011;11585;51.450;-0.240;2022-11-24T02:40:08;8.23;;;1.33;;
22837;SDS011;11585;51.450;-0.240;2022-11-24T02:42:35;4.43;;;1.15;;
22837;SDS011;11585;51.450;-0.240;2022-11-24T02:47:51;5.53;;;1.15;;
22837;SDS011;11585;51.450;-0.240;2022-11-24T02:50:17;5.60;;;1.05;;
22837;SDS011;11585;51.450;-0.240;2022-11-24T02:52:42;8.45;;;1.48;;
22837;SDS011;11585;51.450;-0.240;2022-11-24T02:55:10;10.73;;;1.50;;
22837;SDS011;11585;51.450;-0.240;2022-11-24T02:57:36;7.15;;;1.52;;
22837;SDS011;11585;51.450;-0.240;2022-11-24T03:00:02;14.35;;;1.60;;
22837;SDS011;11585;51.450;-0.240;2022-11-24T03:02:28;10.25;;;1.85;;
22837;SDS011;11585;51.450;-0.240;2022-11-24T03:08:15;5.32;;;1.20;;
22837;SDS011;11585;51.450;-0.240;2022-11-24T03:10:41;7.70;;;1.30;;
22837;SDS011;11585;51.450;-0.240;2022-11-24T03:15:53;6.28;;;1.42;;
22837;SDS011;11585;51.450;-0.240;2022-11-24T03:18:19;6.93;;;1.30;;
22837;SDS011;11585;51.450;-0.240;2022-11-24T03:20:45;19.95;;;2.30;;
22837;SDS011;11585;51.450;-0.240;2022-11-24T03:25:40;13.30;;;1.60;;
22837;SDS011;11585;51.450;-0.240;2022-11-24T03:28:06;13.90;;;1.60;;
22837;SDS011;11585;51.450;-0.240;2022-11-24T03:30:31;12.27;;;1.67;;
22837;SDS011;11585;51.450;-0.240;2022-11-24T03:33:02;10.43;;;1.50;;
22837;SDS011;11585;51.450;-0.240;2022-11-24T03:35:29;15.70;;;1.98;;
22837;SDS011;11585;51.450;-0.240;2022-11-24T03:37:54;14.63;;;1.80;;
22837;SDS011;11585;51.450;-0.240;2022-11-24T03:40:20;9.80;;;2.05;;
22837;SDS011;11585;51.450;-0.240;2022-11-24T03:42:46;11.77;;;1.80;;
22837;SDS011;11585;51.450;-0.240;2022-11-24T03:48:20;6.93;;;1.80;;
22837;SDS011;11585;51.450;-0.240;2022-11-24T03:50:55;15.32;;;1.70;;
22837;SDS011;11585;51.450;-0.240;2022-11-24T03:53:23;10.35;;;1.80;;
22837;SDS011;11585;51.450;-0.240;2022-11-24T03:55:50;7.43;;;1.80;;
22837;SDS011;11585;51.450;-0.240;2022-11-24T03:58:15;11.00;;;1.90;;
22837;SDS011;11585;51.450;-0.240;2022-11-24T04:00:41;12.30;;;2.08;;
22837;SDS011;11585;51.450;-0.240;2022-11-24T04:06:15;10.65;;;2.05;;
22837;SDS011;11585;51.450;-0.240;2022-11-24T04:08:40;16.65;;;2.08;;
22837;SDS011;11585;51.450;-0.240;2022-11-24T04:11:06;14.52;;;2.40;;
22837;SDS011;11585;51.450;-0.240;2022-11-24T04:16:19;16.48;;;2.22;;
22837;SDS011;11585;51.450;-0.240;2022-11-24T04:18:45;13.60;;;2.10;;
22837;SDS011;11585;51.450;-0.240;2022-11-24T04:21:10;10.98;;;1.65;;
22837;SDS011;11585;51.450;-0.240;2022-11-24T04:26:06;18.05;;;2.50;;
22837;SDS011;11585;51.450;-0.240;2022-11-24T04:28:31;17.50;;;2.63;;
22837;SDS011;11585;51.450;-0.240;2022-11-24T04:31:00;15.25;;;2.58;;
22837;SDS011;11585;51.450;-0.240;2022-11-24T04:35:56;17.83;;;3.05;;
22837;SDS011;11585;51.450;-0.240;2022-11-24T04:38:22;17.42;;;2.65;;
22837;SDS011;11585;51.450;-0.240;2022-11-24T04:40:48;15.02;;;2.10;;
22837;SDS011;11585;51.450;-0.240;2022-11-24T04:46:35;16.13;;;2.38;;
22837;SDS011;11585;51.450;-0.240;2022-11-24T04:49:01;17.40;;;2.40;;
22837;SDS011;11585;51.450;-0.240;2022-11-24T04:51:26;23.75;;;2.50;;
22837;SDS011;11585;51.450;-0.240;2022-11-24T04:53:53;16.98;;;2.40;;
22837;SDS011;11585;51.450;-0.240;2022-11-24T04:56:19;24.02;;;2.63;;
22837;SDS011;11585;51.450;-0.240;2022-11-24T04:58:46;18.85;;;2.65;;
22837;SDS011;11585;51.450;-0.240;2022-11-24T05:01:13;26.05;;;2.40;;
22837;SDS011;11585;51.450;-0.240;2022-11-24T05:03:41;20.45;;;2.92;;
22837;SDS011;11585;51.450;-0.240;2022-11-24T05:06:06;15.93;;;3.05;;
22837;SDS011;11585;51.450;-0.240;2022-11-24T05:08:33;14.73;;;2.20;;
22837;SDS011;11585;51.450;-0.240;2022-11-24T05:11:02;25.83;;;3.05;;
22837;SDS011;11585;51.450;-0.240;2022-11-24T05:13:29;19.60;;;2.50;;
22837;SDS011;11585;51.450;-0.240;2022-11-24T05:15:55;18.92;;;2.55;;
22837;SDS011;11585;51.450;-0.240;2022-11-24T05:18:21;15.50;;;2.40;;
22837;SDS011;11585;51.450;-0.240;2022-11-24T05:20:46;17.73;;;2.28;;
22837;SDS011;11585;51.450;-0.240;2022-11-24T05:25:59;14.77;;;2.58;;
22837;SDS011;11585;51.450;-0.240;2022-11-24T05:28:25;18.33;;;2.72;;
22837;SDS011;11585;51.450;-0.240;2022-11-24T05:30:51;16.55;;;2.33;;
22837;SDS011;11585;51.450;-0.240;2022-11-24T05:36:39;21.70;;;2.55;;
22837;SDS011;11585;51.450;-0.240;2022-11-24T05:39:20;21.60;;;2.70;;
22837;SDS011;11585;51.450;-0.240;2022-11-24T05:41:46;20.98;;;2.22;;
22837;SDS011;11585;51.450;-0.240;2022-11-24T05:47:17;19.67;;;2.78;;
22837;SDS011;11585;51.450;-0.240;2022-11-24T05:49:43;11.30;;;2.05;;
22837;SDS011;11585;51.450;-0.240;2022-11-24T05:52:09;23.17;;;3.20;;
22837;SDS011;11585;51.450;-0.240;2022-11-24T05:54:35;21.05;;;4.28;;
22837;SDS011;11585;51.450;-0.240;2022-11-24T05:57:00;19.73;;;2.95;;
22837;SDS011;11585;51.450;-0.240;2022-11-24T05:59:26;19.63;;;2.80;;
22837;SDS011;11585;51.450;-0.240;2022-11-24T06:01:51;17.52;;;2.75;;
22837;SDS011;11585;51.450;-0.240;2022-11-24T06:07:22;15.45;;;2.30;;
22837;SDS011;11585;51.450;-0.240;2022-11-24T06:09:48;24.55;;;3.45;;
22837;SDS011;11585;51.450;-0.240;2022-11-24T06:12:14;23.08;;;3.20;;
22837;SDS011;11585;51.450;-0.240;2022-11-24T06:14:42;17.95;;;2.25;;
22837;SDS011;11585;51.450;-0.240;2022-11-24T06:17:08;15.15;;;2.55;;
22837;SDS011;11585;51.450;-0.240;2022-11-24T06:19:35;18.67;;;3.30;;
22837;SDS011;11585;51.450;-0.240;2022-11-24T06:22:00;24.65;;;2.83;;
22837;SDS011;11585;51.450;-0.240;2022-11-24T06:24:26;22.65;;;2.80;;
22837;SDS011;11585;51.450;-0.240;2022-11-24T06:26:51;19.05;;;3.08;;
22837;SDS011;11585;51.450;-0.240;2022-11-24T06:29:17;26.10;;;2.92;;
22837;SDS011;11585;51.450;-0.240;2022-11-24T06:31:43;19.33;;;3.00;;
22837;SDS011;11585;51.450;-0.240;2022-11-24T06:37:30;19.70;;;2.88;;
22837;SDS011;11585;51.450;-0.240;2022-11-24T06:39:56;28.55;;;2.92;;
22837;SDS011;11585;51.450;-0.240;2022-11-24T06:42:22;24.20;;;3.47;;
22837;SDS011;11585;51.450;-0.240;2022-11-24T06:48:10;34.97;;;3.33;;
22837;SDS011;11585;51.450;-0.240;2022-11-24T06:50:35;22.92;;;2.70;;
22837;SDS011;11585;51.450;-0.240;2022-11-24T06:53:01;16.33;;;2.30;;
22837;SDS011;11585;51.450;-0.240;2022-11-24T06:55:27;22.30;;;2.90;;
22837;SDS011;11585;51.450;-0.240;2022-11-24T06:57:52;19.80;;;3.00;;
22837;SDS011;11585;51.450;-0.240;2022-11-24T07:00:18;19.35;;;2.88;;
22837;SDS011;11585;51.450;-0.240;2022-11-24T07:02:43;20.45;;;3.08;;
22837;SDS011;11585;51.450;-0.240;2022-11-24T07:07:54;24.77;;;2.92;;
22837;SDS011;11585;51.450;-0.240;2022-11-24T07:10:19;23.67;;;2.92;;
22837;SDS011;11585;51.450;-0.240;2022-11-24T07:12:45;25.10;;;4.10;;
22837;SDS011;11585;51.450;-0.240;2022-11-24T07:18:33;33.10;;;4.55;;
22837;SDS011;11585;51.450;-0.240;2022-11-24T07:24:20;16.33;;;3.20;;
22837;SDS011;11585;51.450;-0.240;2022-11-24T07:26:46;30.08;;;3.33;;
22837;SDS011;11585;51.450;-0.240;2022-11-24T07:29:11;26.02;;;2.90;;
22837;SDS011;11585;51.450;-0.240;2022-11-24T07:31:37;21.30;;;2.83;;
22837;SDS011;11585;51.450;-0.240;2022-11-24T07:34:04;21.40;;;2.95;;
22837;SDS011;11585;51.450;-0.240;2022-11-24T07:36:30;24.90;;;2.75;;
22837;SDS011;11585;51.450;-0.240;2022-11-24T07:38:55;24.92;;;3.15;;
22837;SDS011;11585;51.450;-0.240;2022-11-24T07:41:21;22.65;;;3.08;;
22837;SDS011;11585;51.450;-0.240;2022-11-24T07:46:18;23.58;;;2.88;;
22837;SDS011;11585;51.450;-0.240;2022-11-24T07:48:44;25.63;;;3.13;;
22837;SDS011;11585;51.450;-0.240;2022-11-24T07:51:10;27.52;;;3.00;;
22837;SDS011;11585;51.450;-0.240;2022-11-24T07:53:36;28.60;;;2.95;;
22837;SDS011;11585;51.450;-0.240;2022-11-24T07:56:02;20.42;;;2.67;;
22837;SDS011;11585;51.450;-0.240;2022-11-24T07:58:31;28.05;;;3.20;;
22837;SDS011;11585;51.450;-0.240;2022-11-24T08:00:58;33.67;;;3.60;;
22837;SDS011;11585;51.450;-0.240;2022-11-24T08:06:46;28.40;;;2.72;;
22837;SDS011;11585;51.450;-0.240;2022-11-24T08:09:12;26.20;;;4.82;;
22837;SDS011;11585;51.450;-0.240;2022-11-24T08:11:38;35.40;;;3.90;;
22837;SDS011;11585;51.450;-0.240;2022-11-24T08:14:06;34.30;;;6.78;;
22837;SDS011;11585;51.450;-0.240;2022-11-24T08:16:31;26.17;;;3.35;;
22837;SDS011;11585;51.450;-0.240;2022-11-24T08:18:57;26.23;;;3.72;;
22837;SDS011;11585;51.450;-0.240;2022-11-24T08:21:23;31.90;;;3.60;;
22837;SDS011;11585;51.450;-0.240;2022-11-24T08:26:34;23.48;;;3.17;;
22837;SDS011;11585;51.450;-0.240;2022-11-24T08:28:59;27.00;;;2.97;;
22837;SDS011;11585;51.450;-0.240;2022-11-24T08:31:26;28.10;;;3.83;;
22837;SDS011;11585;51.450;-0.240;2022-11-24T08:37:18;21.35;;;3.42;;
22837;SDS011;11585;51.450;-0.240;2022-11-24T08:39:44;21.20;;;3.15;;
22837;SDS011;11585;51.450;-0.240;2022-11-24T08:42:09;27.02;;;4.03;;
22837;SDS011;11585;51.450;-0.240;2022-11-24T08:44:35;20.08;;;2.80;;
22837;SDS011;11585;51.450;-0.240;2022-11-24T08:47:01;25.58;;;2.78;;
22837;SDS011;11585;51.450;-0.240;2022-11-24T08:49:26;26.60;;;3.47;;
22837;SDS011;11585;51.450;-0.240;2022-11-24T08:51:52;27.38;;;3.47;;
22837;SDS011;11585;51.450;-0.240;2022-11-24T08:54:18;23.95;;;3.08;;
22837;SDS011;11585;51.450;-0.240;2022-11-24T08:56:44;23.45;;;3.42;;
22837;SDS011;11585;51.450;-0.240;2022-11-24T08:59:11;24.20;;;3.22;;
22837;SDS011;11585;51.450;-0.240;2022-11-24T09:01:37;32.85;;;4.35;;
22837;SDS011;11585;51.450;-0.240;2022-11-24T09:04:03;17.42;;;3.80;;
22837;SDS011;11585;51.450;-0.240;2022-11-24T09:06:29;28.60;;;3.88;;
22837;SDS011;11585;51.450;-0.240;2022-11-24T09:08:55;25.42;;;3.88;;
22837;SDS011;11585;51.450;-0.240;2022-11-24T09:11:21;28.17;;;4.22;;
22837;SDS011;11585;51.450;-0.240;2022-11-24T09:13:48;41.38;;;4.95;;
22837;SDS011;11585;51.450;-0.240;2022-11-24T09:16:15;44.15;;;3.97;;
22837;SDS011;11585;51.450;-0.240;2022-11-24T09:18:43;28.98;;;3.72;;
22837;SDS011;11585;51.450;-0.240;2022-11-24T09:21:13;32.15;;;3.72;;
22837;SDS011;11585;51.450;-0.240;2022-11-24T09:23:41;23.38;;;3.22;;
22837;SDS011;11585;51.450;-0.240;2022-11-24T09:26:08;32.55;;;3.67;;
22837;SDS011;11585;51.450;-0.240;2022-11-24T09:28:36;27.35;;;3.97;;
22837;SDS011;11585;51.450;-0.240;2022-11-24T09:31:06;21.70;;;3.78;;
22837;SDS011;11585;51.450;-0.240;2022-11-24T09:33:33;35.58;;;4.30;;
22837;SDS011;11585;51.450;-0.240;2022-11-24T09:36:00;29.45;;;4.03;;
22837;SDS011;11585;51.450;-0.240;2022-11-24T09:38:26;30.73;;;4.20;;
22837;SDS011;11585;51.450;-0.240;2022-11-24T09:40:52;19.55;;;3.10;;
22837;SDS011;11585;51.450;-0.240;2022-11-24T09:43:22;45.33;;;4.50;;
22837;SDS011;11585;51.450;-0.240;2022-11-24T09:48:55;31.63;;;4.05;;
22837;SDS011;11585;51.450;-0.240;2022-11-24T09:51:23;37.53;;;4.97;;
22837;SDS011;11585;51.450;-0.240;2022-11-24T09:53:54;41.67;;;5.05;;
22837;SDS011;11585;51.450;-0.240;2022-11-24T09:56:33;31.85;;;4.18;;
22837;SDS011;11585;51.450;-0.240;2022-11-24T10:01:39;40.85;;;4.40;;
22837;SDS011;11585;51.450;-0.240;2022-11-24T10:04:14;37.45;;;4.95;;
22837;SDS011;11585;51.450;-0.240;2022-11-24T10:21:04;31.27;;;4.10;;
22837;SDS011;11585;51.450;-0.240;2022-11-24T10:29:38;38.22;;;5.30;;
22837;SDS011;11585;51.450;-0.240;2022-11-24T10:32:06;42.15;;;4.53;;
22837;SDS011;11585;51.450;-0.240;2022-11-24T10:35:05;34.10;;;4.93;;
22837;SDS011;11585;51.450;-0.240;2022-11-24T10:37:49;40.10;;;4.93;;
22837;SDS011;11585;51.450;-0.240;2022-11-24T10:40:40;43.97;;;5.57;;
22837;SDS011;11585;51.450;-0.240;2022-11-24T10:43:09;40.22;;;4.90;;
22837;SDS011;11585;51.450;-0.240;2022-11-24T10:45:36;48.67;;;4.53;;
22837;SDS011;11585;51.450;-0.240;2022-11-24T10:48:04;46.33;;;5.70;;
22837;SDS011;11585;51.450;-0.240;2022-11-24T10:50:36;52.75;;;6.65;;
22837;SDS011;11585;51.450;-0.240;2022-11-24T10:58:23;33.35;;;4.60;;
22837;SDS011;11585;51.450;-0.240;2022-11-24T11:00:50;49.55;;;4.72;;
22837;SDS011;11585;51.450;-0.240;2022-11-24T11:08:37;32.33;;;4.82;;
22837;SDS011;11585;51.450;-0.240;2022-11-24T11:16:22;33.28;;;4.95;;
22837;SDS011;11585;51.450;-0.240;2022-11-24T11:18:50;43.40;;;4.70;;
22837;SDS011;11585;51.450;-0.240;2022-11-24T11:21:27;49.72;;;5.57;;
22837;SDS011;11585;51.450;-0.240;2022-11-24T11:24:01;38.33;;;8.75;;
22837;SDS011;11585;51.450;-0.240;2022-11-24T11:26:45;53.03;;;10.93;;
22837;SDS011;11585;51.450;-0.240;2022-11-24T11:29:13;42.13;;;8.10;;
22837;SDS011;11585;51.450;-0.240;2022-11-24T11:36:47;40.80;;;4.85;;
22837;SDS011;11585;51.450;-0.240;2022-11-24T11:41:47;31.50;;;5.65;;
22837;SDS011;11585;51.450;-0.240;2022-11-24T11:47:19;35.38;;;5.03;;
22837;SDS011;11585;51.450;-0.240;2022-11-24T11:49:58;38.40;;;4.65;;
22837;SDS011;11585;51.450;-0.240;2022-11-24T11:52:40;34.05;;;4.80;;
22837;SDS011;11585;51.450;-0.240;2022-11-24T12:01:26;27.80;;;3.80;;
22837;SDS011;11585;51.450;-0.240;2022-11-24T12:04:23;42.70;;;5.88;;
22837;SDS011;11585;51.450;-0.240;2022-11-24T12:27:16;33.70;;;5.45;;
22837;SDS011;11585;51.450;-0.240;2022-11-24T12:55:19;24.05;;;3.65;;
22837;SDS011;11585;51.450;-0.240;2022-11-24T13:00:26;31.85;;;3.90;;
22837;SDS011;11585;51.450;-0.240;2022-11-24T13:03:15;34.63;;;5.03;;
22837;SDS011;11585;51.450;-0.240;2022-11-24T13:05:52;23.38;;;3.38;;
22837;SDS011;11585;51.450;-0.240;2022-11-24T13:08:27;21.10;;;3.67;;
22837;SDS011;11585;51.450;-0.240;2022-11-24T13:10:53;22.08;;;3.65;;
22837;SDS011;11585;51.450;-0.240;2022-11-24T13:16:19;25.75;;;3.40;;
22837;SDS011;11585;51.450;-0.240;2022-11-24T13:23:57;35.40;;;4.63;;
22837;SDS011;11585;51.450;-0.240;2022-11-24T13:29:03;32.10;;;4.43;;
22837;SDS011;11585;51.450;-0.240;2022-11-24T13:31:30;25.38;;;4.00;;
22837;SDS011;11585;51.450;-0.240;2022-11-24T13:33:56;31.42;;;4.65;;
22837;SDS011;11585;51.450;-0.240;2022-11-24T13:49:38;20.83;;;4.53;;
22837;SDS011;11585;51.450;-0.240;2022-11-24T13:55:02;16.83;;;3.28;;
22837;SDS011;11585;51.450;-0.240;2022-11-24T13:57:41;32.55;;;5.22;;
22837;SDS011;11585;51.450;-0.240;2022-11-24T14:02:47;15.65;;;2.95;;
22837;SDS011;11585;51.450;-0.240;2022-11-24T14:05:14;24.67;;;4.00;;
22837;SDS011;11585;51.450;-0.240;2022-11-24T14:07:42;23.80;;;4.28;;
22837;SDS011;11585;51.450;-0.240;2022-11-24T14:10:14;36.60;;;5.30;;
22837;SDS011;11585;51.450;-0.240;2022-11-24T14:12:42;33.72;;;4.10;;
22837;SDS011;11585;51.450;-0.240;2022-11-24T14:15:19;28.50;;;3.15;;
22837;SDS011;11585;51.450;-0.240;2022-11-24T14:17:49;38.53;;;3.30;;
22837;SDS011;11585;51.450;-0.240;2022-11-24T14:20:21;24.48;;;3.63;;
22837;SDS011;11585;51.450;-0.240;2022-11-24T14:22:48;25.65;;;4.28;;
22837;SDS011;11585;51.450;-0.240;2022-11-24T14:25:22;27.40;;;4.70;;
22837;SDS011;11585;51.450;-0.240;2022-11-24T14:27:53;41.53;;;4.15;;
22837;SDS011;11585;51.450;-0.240;2022-11-24T14:30:21;32.38;;;6.82;;
22837;SDS011;11585;51.450;-0.240;2022-11-24T14:32:58;32.88;;;5.40;;
22837;SDS011;11585;51.450;-0.240;2022-11-24T14:35:27;24.80;;;4.05;;
22837;SDS011;11585;51.450;-0.240;2022-11-24T14:37:57;33.38;;;4.50;;
22837;SDS011;11585;51.450;-0.240;2022-11-24T14:43:19;30.92;;;4.07;;
22837;SDS011;11585;51.450;-0.240;2022-11-24T14:48:24;35.17;;;5.20;;
22837;SDS011;11585;51.450;-0.240;2022-11-24T14:51:03;34.85;;;5.05;;
22837;SDS011;11585;51.450;-0.240;2022-11-24T14:53:42;32.78;;;4.38;;
22837;SDS011;11585;51.450;-0.240;2022-11-24T14:56:21;27.85;;;3.80;;
22837;SDS011;11585;51.450;-0.240;2022-11-24T14:58:47;24.85;;;3.85;;
22837;SDS011;11585;51.450;-0.240;2022-11-24T15:07:11;25.90;;;4.93;;
22837;SDS011;11585;51.450;-0.240;2022-11-24T15:15:40;30.73;;;4.87;;
22837;SDS011;11585;51.450;-0.240;2022-11-24T15:18:38;22.23;;;4.15;;
22837;SDS011;11585;51.450;-0.240;2022-11-24T15:21:10;27.70;;;3.63;;
22837;SDS011;11585;51.450;-0.240;2022-11-24T15:23:36;24.25;;;4.38;;
22837;SDS011;11585;51.450;-0.240;2022-11-24T15:28:36;25.67;;;4.78;;
22837;SDS011;11585;51.450;-0.240;2022-11-24T15:31:08;25.25;;;3.95;;
22837;SDS011;11585;51.450;-0.240;2022-11-24T15:33:37;32.00;;;4.32;;
22837;SDS011;11585;51.450;-0.240;2022-11-24T15:36:04;25.50;;;4.60;;
22837;SDS011;11585;51.450;-0.240;2022-11-24T15:38:30;27.25;;;3.88;;
22837;SDS011;11585;51.450;-0.240;2022-11-24T15:40:57;23.83;;;3.95;;
22837;SDS011;11585;51.450;-0.240;2022-11-24T15:43:34;21.35;;;5.93;;
22837;SDS011;11585;51.450;-0.240;2022-11-24T15:46:03;28.47;;;4.60;;
22837;SDS011;11585;51.450;-0.240;2022-11-24T15:48:29;20.30;;;3.53;;
22837;SDS011;11585;51.450;-0.240;2022-11-24T15:50:55;20.67;;;2.95;;
22837;SDS011;11585;51.450;-0.240;2022-11-24T15:53:23;14.82;;;3.20;;
22837;SDS011;11585;51.450;-0.240;2022-11-24T15:55:50;18.17;;;4.13;;
22837;SDS011;11585;51.450;-0.240;2022-11-24T15:58:16;21.00;;;3.00;;
22837;SDS011;11585;51.450;-0.240;2022-11-24T16:00:42;14.70;;;3.05;;
22837;SDS011;11585;51.450;-0.240;2022-11-24T16:03:08;17.80;;;3.10;;
22837;SDS011;11585;51.450;-0.240;2022-11-24T16:05:36;15.32;;;2.30;;
22837;SDS011;11585;51.450;-0.240;2022-11-24T16:08:07;18.40;;;2.35;;
22837;SDS011;11585;51.450;-0.240;2022-11-24T16:10:36;17.90;;;2.30;;
22837;SDS011;11585;51.450;-0.240;2022-11-24T16:13:02;12.82;;;2.30;;
22837;SDS011;11585;51.450;-0.240;2022-11-24T16:15:28;16.65;;;3.20;;
22837;SDS011;11585;51.450;-0.240;2022-11-24T16:17:54;24.35;;;2.30;;
22837;SDS011;11585;51.450;-0.240;2022-11-24T16:20:20;13.30;;;2.03;;
22837;SDS011;11585;51.450;-0.240;2022-11-24T16:22:45;9.25;;;2.33;;
22837;SDS011;11585;51.450;-0.240;2022-11-24T16:25:11;13.10;;;2.05;;
22837;SDS011;11585;51.450;-0.240;2022-11-24T16:27:37;9.05;;;2.60;;
22837;SDS011;11585;51.450;-0.240;2022-11-24T16:30:03;24.42;;;5.82;;
22837;SDS011;11585;51.450;-0.240;2022-11-24T16:32:29;14.25;;;3.10;;
22837;SDS011;11585;51.450;-0.240;2022-11-24T16:34:55;14.25;;;2.92;;
22837;SDS011;11585;51.450;-0.240;2022-11-24T16:37:20;4.57;;;1.48;;
22837;SDS011;11585;51.450;-0.240;2022-11-24T16:39:46;6.28;;;1.70;;
22837;SDS011;11585;51.450;-0.240;2022-11-24T16:42:12;9.77;;;1.52;;
22837;SDS011;11585;51.450;-0.240;2022-11-24T16:44:39;9.18;;;1.83;;
22837;SDS011;11585;51.450;-0.240;2022-11-24T16:47:05;8.25;;;1.50;;
22837;SDS011;11585;51.450;-0.240;2022-11-24T16:49:36;5.30;;;1.35;;
22837;SDS011;11585;51.450;-0.240;2022-11-24T16:52:02;6.32;;;1.40;;
22837;SDS011;11585;51.450;-0.240;2022-11-24T16:54:28;15.10;;;1.80;;
22837;SDS011;11585;51.450;-0.240;2022-11-24T16:56:55;5.45;;;1.27;;
22837;SDS011;11585;51.450;-0.240;2022-11-24T16:59:20;11.82;;;1.50;;
22837;SDS011;11585;51.450;-0.240;2022-11-24T17:01:46;8.57;;;1.90;;
22837;SDS011;11585;51.450;-0.240;2022-11-24T17:04:14;8.60;;;2.08;;
22837;SDS011;11585;51.450;-0.240;2022-11-24T17:06:41;12.00;;;1.58;;
22837;SDS011;11585;51.450;-0.240;2022-11-24T17:09:06;9.85;;;2.20;;
22837;SDS011;11585;51.450;-0.240;2022-11-24T17:11:33;8.48;;;2.20;;
22837;SDS011;11585;51.450;-0.240;2022-11-24T17:13:59;7.47;;;1.35;;
22837;SDS011;11585;51.450;-0.240;2022-11-24T17:16:25;7.30;;;1.75;;
22837;SDS011;11585;51.450;-0.240;2022-11-24T17:18:50;6.22;;;1.63;;
22837;SDS011;11585;51.450;-0.240;2022-11-24T17:21:17;8.32;;;1.50;;
22837;SDS011;11585;51.450;-0.240;2022-11-24T17:23:44;8.93;;;1.35;;
22837;SDS011;11585;51.450;-0.240;2022-11-24T17:26:11;8.65;;;1.40;;
22837;SDS011;11585;51.450;-0.240;2022-11-24T17:28:39;12.80;;;1.88;;
22837;SDS011;11585;51.450;-0.240;2022-11-24T17:33:56;11.52;;;1.63;;
22837;SDS011;11585;51.450;-0.240;2022-11-24T17:36:23;8.65;;;1.67;;
22837;SDS011;11585;51.450;-0.240;2022-11-24T17:38:50;20.45;;;2.47;;
22837;SDS011;11585;51.450;-0.240;2022-11-24T17:41:25;10.50;;;2.20;;
22837;SDS011;11585;51.450;-0.240;2022-11-24T17:43:54;11.98;;;2.08;;
22837;SDS011;11585;51.450;-0.240;2022-11-24T17:46:20;11.80;;;2.08;;
22837;SDS011;11585;51.450;-0.240;2022-11-24T17:48:47;10.68;;;2.40;;
22837;SDS011;11585;51.450;-0.240;2022-11-24T17:51:13;10.15;;;2.92;;
22837;SDS011;11585;51.450;-0.240;2022-11-24T17:53:41;12.02;;;2.30;;
22837;SDS011;11585;51.450;-0.240;2022-11-24T17:56:11;11.07;;;2.25;;
22837;SDS011;11585;51.450;-0.240;2022-11-24T17:58:38;11.13;;;2.90;;
22837;SDS011;11585;51.450;-0.240;2022-11-24T18:01:04;8.27;;;2.20;;
22837;SDS011;11585;51.450;-0.240;2022-11-24T18:03:30;15.52;;;2.40;;
22837;SDS011;11585;51.450;-0.240;2022-11-24T18:06:09;14.40;;;2.70;;
22837;SDS011;11585;51.450;-0.240;2022-11-24T18:08:40;13.20;;;2.95;;
22837;SDS011;11585;51.450;-0.240;2022-11-24T18:13:46;19.38;;;2.78;;
22837;SDS011;11585;51.450;-0.240;2022-11-24T18:16:12;23.30;;;2.63;;
22837;SDS011;11585;51.450;-0.240;2022-11-24T18:18:39;27.10;;;3.38;;
22837;SDS011;11585;51.450;-0.240;2022-11-24T18:21:05;19.17;;;2.88;;
22837;SDS011;11585;51.450;-0.240;2022-11-24T18:26:16;13.75;;;2.72;;
22837;SDS011;11585;51.450;-0.240;2022-11-24T18:28:42;19.15;;;3.35;;
22837;SDS011;11585;51.450;-0.240;2022-11-24T18:31:12;32.78;;;5.40;;
22837;SDS011;11585;51.450;-0.240;2022-11-24T18:36:44;19.90;;;3.22;;
22837;SDS011;11585;51.450;-0.240;2022-11-24T18:39:14;23.10;;;3.60;;
22837;SDS011;11585;51.450;-0.240;2022-11-24T18:41:43;24.45;;;3.42;;
22837;SDS011;11585;51.450;-0.240;2022-11-24T18:44:11;16.52;;;3.45;;
22837;SDS011;11585;51.450;-0.240;2022-11-24T18:46:37;28.88;;;4.13;;
22837;SDS011;11585;51.450;-0.240;2022-11-24T18:49:03;26.13;;;3.53;;
22837;SDS011;11585;51.450;-0.240;2022-11-24T18:51:30;27.15;;;3.35;;
22837;SDS011;11585;51.450;-0.240;2022-11-24T18:53:57;36.28;;;3.92;;
22837;SDS011;11585;51.450;-0.240;2022-11-24T18:56:23;32.92;;;3.45;;